.
WxDataArchive / Data Records for 2015-05-15
2015-05-14 May 2015 2015-05-16

Data Records for Friday, 15 May 2015

Time	Temp	Chill	HIndex	Humid	Dewpt	 Wind 	HiWind	WindDir	Rain 	Barom
-----	----	-----	------	-----	-----	------	------	-------	-----	-----
00:00	58.0	58.0	58.0	62	45.1	0	1	112	0.00	30.130 
00:05	57.8	57.8	57.8	64	45.7	0	1	112	0.00	30.130 
00:10	57.5	57.5	57.5	65	45.8	0	2	112	0.00	30.130 
00:15	57.2	57.2	57.2	67	46.3	0	2	112	0.00	30.121 
00:20	56.7	56.7	56.7	68	46.3	0	1	112	0.00	30.121 
00:25	56.6	56.6	56.6	69	46.5	0	0	---	0.00	30.121 
00:30	56.3	56.3	56.3	70	46.6	0	1	112	0.00	30.129 
00:35	56.2	56.2	56.2	71	46.9	0	2	112	0.00	30.129 
00:40	56.2	56.2	56.2	71	46.9	0	1	112	0.00	30.129 
00:45	56.0	56.0	56.0	72	47.1	0	1	112	0.00	30.120 
00:50	55.9	55.9	55.9	72	47.0	0	1	112	0.00	30.120 
00:55	55.9	55.9	55.9	72	47.0	0	1	112	0.00	30.120 
01:00	55.7	55.7	55.7	73	47.2	0	1	112	0.00	30.117 
01:05	55.7	55.7	55.7	73	47.2	0	0	---	0.00	30.117 
01:10	55.7	55.7	55.7	73	47.2	0	1	112	0.00	30.117 
01:15	55.6	55.6	55.6	73	47.1	0	1	112	0.00	30.115 
01:20	55.6	55.6	55.6	74	47.4	0	0	---	0.00	30.115 
01:25	55.6	55.6	55.6	74	47.4	0	1	112	0.00	30.115 
01:30	55.4	55.4	55.4	75	47.6	0	2	112	0.00	30.107 
01:35	55.4	55.4	55.4	76	48.0	0	1	112	0.00	30.107 
01:40	55.3	55.3	55.3	76	47.9	0	0	---	0.00	30.107 
01:45	55.1	55.1	55.1	77	48.0	0	2	112	0.00	30.102 
01:50	55.1	55.1	55.1	77	48.0	0	1	112	0.00	30.102 
01:55	55.1	55.1	55.1	77	48.0	0	0	---	0.00	30.102 
02:00	55.0	55.0	55.0	78	48.3	0	1	112	0.00	30.095 
02:05	55.0	55.0	55.0	79	48.6	0	0	---	0.00	30.095 
02:10	55.0	55.0	55.0	80	48.9	0	1	112	0.00	30.095 
02:15	54.8	54.8	54.8	81	49.1	0	1	112	0.01	30.088 
02:20	54.5	54.5	54.5	82	49.1	0	0	---	0.00	30.088 
02:25	54.4	54.4	54.4	83	49.3	0	1	112	0.00	30.088 
02:30	54.2	54.2	54.2	84	49.5	0	0	---	0.00	30.087 
02:35	54.1	54.1	54.1	84	49.4	0	1	112	0.00	30.087 
02:40	53.9	53.9	53.9	85	49.5	0	1	112	0.00	30.087 
02:45	53.9	53.9	53.9	85	49.5	0	1	112	0.00	30.082 
02:50	53.8	53.8	53.8	85	49.4	0	0	---	0.00	30.082 
02:55	53.8	53.8	53.8	85	49.4	0	1	112	0.00	30.082 
03:00	53.8	53.8	53.8	85	49.4	0	0	---	0.00	30.075 
03:05	53.6	53.6	53.6	85	49.2	0	0	---	0.00	30.075 
03:10	53.6	53.6	53.6	85	49.2	0	0	---	0.00	30.075 
03:15	53.8	53.8	53.8	85	49.4	0	0	---	0.00	30.080 
03:20	53.8	53.8	53.8	85	49.4	0	0	---	0.00	30.080 
03:25	53.8	53.8	53.8	86	49.7	0	0	---	0.00	30.080 
03:30	53.8	53.8	53.8	86	49.7	0	0	---	0.00	30.083 
03:35	53.8	53.8	53.8	86	49.7	0	0	---	0.00	30.083 
03:40	53.8	53.8	53.8	86	49.7	0	0	---	0.00	30.083 
03:45	53.8	53.8	53.8	87	50.0	0	0	---	0.01	30.088 
03:50	53.8	53.8	53.8	87	50.0	0	0	---	0.00	30.088 
03:55	53.8	53.8	53.8	87	50.0	0	0	---	0.02	30.088 
04:00	53.8	53.8	53.8	88	50.3	0	0	---	0.02	30.088 
04:05	53.6	53.6	53.6	88	50.1	0	0	---	0.01	30.088 
04:10	53.6	53.6	53.6	88	50.1	0	0	---	0.01	30.088 
04:15	53.6	53.6	53.6	89	50.4	0	0	---	0.02	30.087 
04:20	53.6	53.6	53.6	89	50.4	0	0	---	0.02	30.087 
04:25	53.6	53.6	53.6	90	50.7	0	0	---	0.02	30.087 
04:30	53.6	53.6	53.6	90	50.7	0	0	---	0.01	30.090 
04:35	53.6	53.6	53.6	90	50.7	0	0	---	0.02	30.090 
04:40	53.6	53.6	53.6	91	51.0	0	0	---	0.01	30.090 
04:45	53.8	53.8	53.8	91	51.2	0	0	---	0.01	30.086 
04:50	53.9	53.9	53.9	92	51.6	0	1	112	0.02	30.086 
04:55	54.1	54.1	54.1	92	51.8	0	0	---	0.02	30.086 
05:00	54.2	54.2	54.2	92	51.9	0	1	112	0.01	30.079 
05:05	54.4	54.4	54.4	92	52.1	0	2	112	0.00	30.079 
05:10	54.5	54.5	54.5	92	52.2	0	1	112	0.00	30.079 
05:15	54.7	54.7	54.7	92	52.4	0	1	112	0.01	30.078 
05:20	55.0	55.0	55.0	93	53.0	0	2	112	0.01	30.078 
05:25	55.1	55.1	55.1	93	53.1	0	2	112	0.00	30.078 
05:30	55.1	55.1	55.1	93	53.1	0	1	112	0.00	30.064 
05:35	55.3	55.3	55.3	93	53.3	0	1	112	0.01	30.064 
05:40	55.3	55.3	55.3	93	53.3	0	1	112	0.00	30.064 
05:45	55.4	55.4	55.4	93	53.4	0	0	---	0.00	30.052 
05:50	55.6	55.6	55.6	93	53.6	0	0	---	0.00	30.052 
05:55	55.6	55.6	55.6	93	53.6	0	0	---	0.01	30.052 
06:00	55.6	55.6	55.6	94	53.9	0	0	---	0.00	30.049 
06:05	55.6	55.6	55.6	94	53.9	0	0	---	0.00	30.049 
06:10	55.6	55.6	55.6	94	53.9	0	0	---	0.00	30.049 
06:15	55.7	55.7	55.7	94	54.0	0	1	112	0.00	30.045 
06:20	55.7	55.7	55.7	94	54.0	0	0	---	0.00	30.045 
06:25	55.7	55.7	55.7	94	54.0	0	0	---	0.00	30.045 
06:30	55.7	55.7	55.7	94	54.0	0	1	112	0.00	30.037 
06:35	55.7	55.7	55.7	94	54.0	0	0	---	0.00	30.037 
06:40	55.7	55.7	55.7	94	54.0	0	1	112	0.00	30.037 
06:45	55.7	55.7	55.7	94	54.0	0	0	---	0.00	30.030 
06:50	55.7	55.7	55.7	94	54.0	0	1	112	0.00	30.030 
06:55	55.7	55.7	55.7	94	54.0	0	2	112	0.00	30.030 
07:00	55.7	55.7	55.7	94	54.0	0	2	112	0.01	30.021 
07:05	55.7	55.7	55.7	94	54.0	0	1	112	0.00	30.021 
07:10	55.9	55.9	55.9	94	54.2	0	0	---	0.00	30.021 
07:15	55.9	55.9	55.9	94	54.2	0	1	112	0.00	30.024 
07:20	55.9	55.9	55.9	94	54.2	0	1	112	0.00	30.024 
07:25	55.9	55.9	55.9	94	54.2	0	0	---	0.00	30.024 
07:30	56.0	56.0	56.0	95	54.6	0	1	112	0.00	30.024 
07:35	56.2	56.2	56.2	95	54.8	0	0	---	0.00	30.024 
07:40	56.3	56.3	56.3	95	54.9	0	1	112	0.00	30.024 
07:45	56.6	56.6	56.6	95	55.2	0	2	112	0.00	30.035 
07:50	56.7	56.7	56.7	95	55.3	0	1	112	0.01	30.035 
07:55	56.9	56.9	56.9	95	55.5	0	2	112	0.00	30.035 
08:00	57.0	57.0	57.0	95	55.6	0	3	112	0.00	30.030 
08:05	57.0	57.0	57.0	95	55.6	0	1	112	0.00	30.030 
08:10	57.2	57.2	57.2	95	55.8	0	2	112	0.00	30.030 
08:15	57.3	57.3	57.3	95	55.9	0	2	112	0.00	30.035 
08:20	57.5	57.5	57.5	95	56.1	0	2	112	0.00	30.035 
08:25	57.5	57.5	57.5	94	55.8	0	1	112	0.00	30.035 
08:30	57.6	57.6	57.6	94	55.9	0	3	112	0.00	30.037 
08:35	57.6	57.6	57.6	94	55.9	0	1	112	0.00	30.037 
08:40	57.8	57.8	57.8	94	56.1	0	4	112	0.00	30.037 
08:45	57.8	57.8	57.8	94	56.1	0	1	112	0.00	30.041 
08:50	57.8	57.8	57.8	94	56.1	0	0	---	0.00	30.041 
08:55	58.0	58.0	58.0	94	56.3	0	1	112	0.00	30.041 
09:00	58.0	58.0	58.0	94	56.3	0	0	---	0.00	30.038 
09:05	58.0	58.0	58.0	94	56.3	0	0	---	0.00	30.038 
09:10	58.0	58.0	58.0	93	56.0	0	1	112	0.00	30.038 
09:15	58.0	58.0	58.0	93	56.0	0	1	112	0.00	30.035 
09:20	58.1	58.1	58.1	93	56.1	0	1	112	0.00	30.035 
09:25	58.4	58.4	58.4	93	56.4	0	4	112	0.00	30.035 
09:30	58.6	58.6	58.6	93	56.6	0	0	---	0.00	30.034 
09:35	58.7	58.7	58.7	93	56.7	0	1	112	0.00	30.034 
09:40	59.2	59.2	59.2	93	57.2	0	2	112	0.00	30.034 
09:45	59.6	59.6	59.6	93	57.6	0	2	112	0.00	30.027 
09:50	60.1	60.1	60.1	93	58.1	0	1	112	0.00	30.027 
09:55	60.4	60.4	60.4	92	58.1	0	2	112	0.00	30.027 
10:00	60.5	60.5	60.5	92	58.2	0	1	112	0.00	30.027 
10:05	60.5	60.5	60.5	91	57.9	0	1	112	0.00	30.027 
10:10	60.9	60.9	60.9	91	58.3	0	1	112	0.00	30.027 
10:15	61.2	61.2	61.2	91	58.5	0	1	112	0.00	30.030 
10:20	61.3	61.3	61.3	90	58.3	0	2	112	0.00	30.030 
10:25	61.6	61.6	61.6	90	58.6	0	2	112	0.00	30.030 
10:30	61.8	61.8	61.8	89	58.5	0	2	112	0.00	30.032 
10:35	62.0	62.0	62.0	88	58.4	0	2	112	0.00	30.032 
10:40	62.1	62.1	62.1	88	58.5	0	3	112	0.00	30.032 
10:45	62.4	62.4	62.4	87	58.5	0	1	112	0.00	30.034 
10:50	62.9	62.9	62.9	87	59.0	0	1	112	0.00	30.034 
10:55	63.7	63.7	63.7	87	59.8	0	3	112	0.00	30.034 
11:00	64.2	64.2	64.2	84	59.3	0	2	112	0.00	30.031 
11:05	64.5	64.5	64.5	83	59.2	0	2	112	0.00	30.031 
11:10	64.5	64.5	64.5	82	58.9	0	2	112	0.00	30.031 
11:15	64.7	64.7	64.7	82	59.1	0	1	112	0.00	30.032 
11:20	65.2	65.2	65.2	82	59.6	0	2	112	0.00	30.032 
11:25	65.6	65.6	65.6	81	59.6	0	4	22	0.00	30.032 
11:30	66.0	66.0	66.0	78	58.9	1	4	270	0.00	30.027 
11:35	66.8	66.8	66.8	79	60.1	0	1	270	0.00	30.027 
11:40	67.6	67.6	67.6	78	60.5	0	3	270	0.00	30.027 
11:45	68.4	68.4	68.4	76	60.5	0	3	270	0.00	30.017 
11:50	69.1	69.1	69.1	75	60.8	0	2	270	0.00	30.017 
11:55	69.6	69.6	69.6	73	60.6	1	5	270	0.00	30.017 
12:00	70.1	70.1	70.1	71	60.2	0	2	22	0.00	30.015 
12:05	70.3	70.3	70.3	70	60.0	0	2	22	0.00	30.015 
12:10	70.9	70.9	70.9	71	61.0	0	2	22	0.00	30.015 
12:15	71.6	71.6	71.6	69	60.9	1	5	68	0.00	30.016 
12:20	72.0	72.0	72.0	69	61.3	1	4	68	0.00	30.016 
12:25	72.1	72.1	72.1	68	60.9	1	4	292	0.00	30.016 
12:30	72.3	72.3	72.3	66	60.3	1	3	248	0.00	30.020 
12:35	72.7	72.7	72.7	67	61.1	1	6	248	0.00	30.020 
12:40	73.0	73.0	73.0	66	61.0	1	5	292	0.00	30.020 
12:45	73.2	73.2	73.2	66	61.1	0	2	292	0.00	30.014 
12:50	73.7	73.7	73.7	66	61.6	1	5	292	0.00	30.014 
12:55	73.9	73.9	73.9	65	61.4	1	3	292	0.00	30.014 
13:00	74.2	74.2	74.2	66	62.1	1	5	248	0.00	30.010 
13:05	74.6	74.6	74.6	64	61.6	1	3	248	0.00	30.010 
13:10	74.6	74.6	74.6	65	62.0	1	4	248	0.00	30.010 
13:15	74.6	74.6	74.6	64	61.6	1	4	248	0.00	30.009 
13:20	74.9	74.9	74.9	67	63.2	0	3	338	0.00	30.009 
13:25	74.9	74.9	74.9	63	61.4	1	3	338	0.00	30.009 
13:30	74.7	74.7	74.7	65	62.1	1	4	292	0.00	30.008 
13:35	74.9	74.9	74.9	65	62.3	1	5	90	0.00	30.008 
13:40	75.3	75.3	77.3	65	62.7	1	4	292	0.00	30.008 
13:45	75.4	75.4	77.4	64	62.4	1	4	292	0.00	30.003 
13:50	75.6	75.6	77.6	63	62.1	1	3	292	0.00	30.003 
13:55	76.0	76.0	77.9	64	62.9	0	4	270	0.00	30.003 
14:00	76.0	76.0	77.9	64	62.9	1	3	270	0.00	29.999 
14:05	75.8	75.8	77.7	65	63.2	0	3	225	0.00	29.999 
14:10	75.8	75.8	77.7	64	62.7	1	3	225	0.00	29.999 
14:15	75.8	75.8	77.7	64	62.7	1	4	315	0.00	29.994 
14:20	75.8	75.8	77.7	64	62.7	1	2	315	0.00	29.994 
14:25	75.8	75.8	77.7	65	63.2	1	3	338	0.00	29.994 
14:30	76.0	76.0	77.8	66	63.8	1	4	338	0.00	29.994 
14:35	76.0	76.0	77.8	66	63.8	1	3	292	0.00	29.994 
14:40	76.3	76.3	78.1	65	63.6	1	3	292	0.00	29.994 
14:45	76.7	76.7	78.5	63	63.1	1	3	248	0.00	29.985 
14:50	76.8	76.8	78.6	63	63.2	1	3	248	0.00	29.985 
14:55	77.6	77.6	79.4	63	64.0	1	4	248	0.00	29.985 
15:00	77.9	77.9	79.6	62	63.8	1	9	68	0.00	29.977 
15:05	77.9	77.9	79.6	62	63.8	1	3	270	0.00	29.977 
15:10	77.7	77.7	79.4	62	63.6	0	4	270	0.00	29.977 
15:15	77.9	77.9	79.6	62	63.8	1	3	270	0.00	29.977 
15:20	77.6	77.6	79.4	62	63.5	0	3	270	0.00	29.977 
15:25	77.4	77.4	79.2	63	63.8	1	5	315	0.00	29.977 
15:30	77.4	77.4	79.2	63	63.8	0	2	315	0.00	29.968 
15:35	77.6	77.6	79.4	63	64.0	0	3	315	0.00	29.968 
15:40	77.7	77.7	79.4	62	63.6	1	3	315	0.00	29.968 
15:45	77.6	77.6	79.4	62	63.5	0	3	315	0.00	29.961 
15:50	77.7	77.7	79.5	63	64.1	0	2	315	0.00	29.961 
15:55	78.6	78.6	80.4	63	64.9	0	3	315	0.00	29.961 
16:00	79.8	79.8	81.7	61	65.1	1	3	315	0.00	29.951 
16:05	80.3	80.3	82.1	59	64.6	0	3	315	0.00	29.951 
16:10	80.3	80.3	81.8	57	63.7	2	6	270	0.00	29.951 
16:15	80.5	80.5	82.2	58	64.3	1	4	270	0.00	29.945 
16:20	79.6	79.6	81.2	58	63.5	2	5	270	0.00	29.945 
16:25	79.8	79.8	81.5	59	64.2	1	2	270	0.00	29.945 
16:30	80.3	80.3	81.8	57	63.7	1	2	270	0.00	29.943 
16:35	80.1	80.1	81.7	58	64.0	1	3	270	0.00	29.943 
16:40	79.6	79.6	81.3	59	64.0	0	2	270	0.00	29.943 
16:45	79.6	79.6	81.3	60	64.5	0	2	270	0.00	29.936 
16:50	79.4	79.4	81.1	60	64.3	0	3	270	0.00	29.936 
16:55	79.2	79.2	80.9	60	64.1	1	3	270	0.00	29.936 
17:00	79.6	79.6	81.3	59	64.0	1	3	292	0.00	29.931 
17:05	79.9	79.9	81.4	57	63.3	1	6	292	0.00	29.931 
17:10	79.9	79.9	81.5	58	63.8	1	2	270	0.00	29.931 
17:15	80.3	80.3	81.9	58	64.2	0	2	270	0.00	29.926 
17:20	80.9	80.9	82.5	57	64.2	1	3	270	0.00	29.926 
17:25	80.7	80.7	82.3	57	64.0	0	2	270	0.00	29.926 
17:30	80.7	80.7	82.0	55	63.0	1	5	270	0.00	29.926 
17:35	80.3	80.3	81.8	57	63.7	1	3	270	0.00	29.926 
17:40	80.1	80.1	81.7	58	64.0	0	3	270	0.00	29.926 
17:45	79.9	79.9	81.5	58	63.8	1	3	270	0.00	29.926 
17:50	79.8	79.8	81.4	58	63.7	1	3	270	0.00	29.926 
17:55	79.9	79.9	81.4	57	63.3	0	2	270	0.00	29.926 
18:00	79.9	79.9	81.4	57	63.3	1	3	270	0.00	29.927 
18:05	80.1	80.1	81.7	58	64.0	0	3	270	0.00	29.927 
18:10	80.5	80.5	82.1	57	63.8	1	3	270	0.00	29.927 
18:15	80.3	80.3	81.6	55	62.6	1	5	270	0.00	29.927 
18:20	79.9	79.9	81.4	57	63.3	0	3	270	0.00	29.927 
18:25	79.8	79.8	81.3	57	63.2	1	6	270	0.00	29.927 
18:30	79.8	79.8	81.3	57	63.2	0	2	90	0.00	29.928 
18:35	79.6	79.6	81.1	57	63.0	0	2	90	0.00	29.928 
18:40	79.4	79.4	80.9	57	62.8	1	3	90	0.00	29.928 
18:45	79.0	79.0	80.5	58	62.9	0	2	90	0.00	29.937 
18:50	78.8	78.8	80.4	59	63.2	0	1	90	0.00	29.937 
18:55	78.8	78.8	80.4	59	63.2	0	2	90	0.00	29.937 
19:00	78.6	78.6	80.2	59	63.1	0	2	90	0.00	29.938 
19:05	78.8	78.8	80.4	59	63.2	0	3	90	0.00	29.938 
19:10	79.0	79.0	80.7	60	63.9	0	2	90	0.00	29.938 
19:15	79.0	79.0	80.5	58	62.9	0	3	225	0.00	29.931 
19:20	78.8	78.8	80.4	59	63.2	0	3	248	0.00	29.931 
19:25	78.8	78.8	80.4	59	63.2	0	3	248	0.00	29.931 
19:30	78.8	78.8	80.4	59	63.2	0	2	0	0.00	29.927 
19:35	78.6	78.6	80.2	59	63.1	0	1	0	0.00	29.927 
19:40	78.6	78.6	80.3	60	63.5	0	1	0	0.00	29.927 
19:45	78.5	78.5	80.2	60	63.4	0	1	0	0.00	29.929 
19:50	78.3	78.3	80.0	61	63.7	0	1	0	0.00	29.929 
19:55	78.1	78.1	79.8	61	63.5	0	0	---	0.00	29.929 
20:00	77.7	77.7	79.4	62	63.6	0	1	0	0.00	29.940 
20:05	77.6	77.6	79.3	61	63.1	0	1	0	0.00	29.940 
20:10	77.4	77.4	79.2	62	63.3	0	1	0	0.00	29.940 
20:15	77.2	77.2	79.0	62	63.2	0	0	---	0.00	29.936 
20:20	77.0	77.0	78.8	63	63.4	0	0	---	0.00	29.936 
20:25	76.8	76.8	78.6	63	63.2	0	0	---	0.00	29.936 
20:30	76.5	76.5	78.3	63	62.9	0	0	---	0.00	29.939 
20:35	76.3	76.3	78.2	64	63.2	0	0	---	0.00	29.939 
20:40	76.1	76.1	78.0	65	63.5	0	0	---	0.00	29.939 
20:45	75.8	75.8	77.7	65	63.2	0	0	---	0.00	29.943 
20:50	75.4	75.4	77.3	66	63.2	0	0	---	0.00	29.943 
20:55	75.3	75.3	77.2	66	63.1	0	0	---	0.00	29.943 
21:00	74.9	74.9	74.9	67	63.2	0	0	---	0.00	29.946 
21:05	74.7	74.7	74.7	68	63.4	0	0	---	0.00	29.946 
21:10	74.6	74.6	74.6	69	63.7	0	0	---	0.00	29.946 
21:15	74.2	74.2	74.2	70	63.8	0	0	---	0.00	29.947 
21:20	74.0	74.0	74.0	70	63.6	0	0	---	0.00	29.947 
21:25	73.9	73.9	73.9	71	63.9	0	0	---	0.00	29.947 
21:30	73.9	73.9	73.9	72	64.3	0	0	---	0.00	29.954 
21:35	73.7	73.7	73.7	72	64.1	0	0	---	0.00	29.954 
21:40	73.5	73.5	73.5	73	64.3	0	0	---	0.00	29.954 
21:45	73.3	73.3	73.3	73	64.1	0	0	---	0.00	29.950 
21:50	73.2	73.2	73.2	74	64.4	0	0	---	0.00	29.950 
21:55	73.2	73.2	73.2	74	64.4	0	0	---	0.00	29.950 
22:00	73.0	73.0	73.0	75	64.6	0	0	---	0.00	29.947 
22:05	73.0	73.0	73.0	75	64.6	0	1	0	0.00	29.947 
22:10	73.0	73.0	73.0	75	64.6	0	0	---	0.00	29.947 
22:15	73.0	73.0	73.0	76	65.0	0	0	---	0.00	29.953 
22:20	73.0	73.0	73.0	76	65.0	0	1	0	0.00	29.953 
22:25	73.0	73.0	73.0	76	65.0	0	1	0	0.00	29.953 
22:30	73.3	73.3	73.3	75	64.9	0	2	0	0.00	29.959 
22:35	73.3	73.3	73.3	74	64.5	0	2	0	0.00	29.959 
22:40	73.3	73.3	73.3	73	64.1	0	2	315	0.00	29.959 
22:45	73.5	73.5	73.5	71	63.5	0	3	315	0.00	29.963 
22:50	73.5	73.5	73.5	69	62.7	0	2	315	0.00	29.963 
22:55	73.9	73.9	73.9	68	62.7	0	3	315	0.00	29.963 
23:00	73.7	73.7	73.7	68	62.5	0	1	315	0.00	29.972 
23:05	73.7	73.7	73.7	68	62.5	0	2	315	0.00	29.972 
23:10	73.5	73.5	73.5	68	62.3	0	0	---	0.00	29.972 
23:15	73.5	73.5	73.5	67	61.9	0	2	315	0.00	29.971 
23:20	73.3	73.3	73.3	67	61.7	0	2	315	0.00	29.971 
23:25	73.3	73.3	73.3	68	62.1	0	2	315	0.00	29.971 
23:30	73.3	73.3	73.3	68	62.1	0	1	315	0.00	29.979 
23:35	73.0	73.0	73.0	69	62.2	0	1	315	0.00	29.979 
23:40	72.8	72.8	72.8	69	62.0	0	0	---	0.00	29.979 
23:45	72.5	72.5	72.5	70	62.1	0	1	315	0.00	29.978 
23:50	72.3	72.3	72.3	70	62.0	0	1	315	0.00	29.978 
23:55	72.1	72.1	72.1	70	61.8	0	2	315	0.00	29.978 

CoCoRaHS
IN-AL-39
A2 Web Hosting
Creative Commons License
GoDaddy
search engine by freefind advanced

loaded 2018-11-15 05:32:24 • last modified 2010-11-18 10:43:29
Privacy PolicyDisclaimer
• wx.awcolley.com is powered by PmWiki v.2002016 •
• all content (unless otherwise noted) © 2018 A W Colley